Flight Track Log - Related Links

Times and Time Zones

All times are in EDT time to prevent confusion due to time zone crossing. See the N71ST flight status page for this flight to view local times or setup timezone preferences in your user account.

Time Position Orientation Groundspeed Altitude Reporting Facility
EDT Latitude Longitude Course Direction KTS MPH feet Rate Location/Type
Fri 05:06:08 PM 39.5000 -77.2500 54° Northeast 121 139 3,000  Level Potomac TRACON
Fri 05:07:08 PM 39.5167 -77.2167 57° Northeast 98 113 3,800 694 Climbing Potomac TRACON
Fri 05:08:09 PM 39.5167 -77.1833 90° East 97 112 4,400 595 Climbing Potomac TRACON
Fri 05:09:09 PM 39.5333 -77.1667 38° Northeast 97 112 5,000 650 Climbing Potomac TRACON
Fri 05:10:09 PM 39.5500 -77.1333 57° Northeast 90 104 5,700 700 Climbing Potomac TRACON
Fri 05:11:00 PM 39.4199 -77.3701 54° Northeast  Level Estimated
Fri 05:11:09 PM 39.5667 -77.1167 38° Northeast 87 100 6,400  Level Potomac TRACON
Fri 05:12:09 PM 39.5833 -77.0833 57° Northeast 78 90 7,000 595 Climbing Potomac TRACON
Fri 05:13:10 PM 39.6000 -77.0667 38° Northeast 89 102 7,600 528 Climbing Potomac TRACON
Fri 05:15:22 PM 39.6317 -77.0089 55° Northeast 94 108 8,700 497 Climbing New York Center
Fri 05:16:23 PM 39.6500 -76.9781 52° Northeast 89 102 9,200 350 Climbing New York Center
Fri 05:17:22 PM 39.6639 -76.9522 55° Northeast 89 102 9,400 101 Climbing New York Center
Fri 05:18:22 PM 39.6803 -76.9133 61° Northeast 100 115 9,400  Level New York Center
Fri 05:19:23 PM 39.6967 -76.8797 58° Northeast 107 123 9,400 51 Level New York Center
Fri 05:20:20 PM 39.7175 -76.8436 53° Northeast 112 129 9,500 102 Climbing New York Center
Fri 05:21:21 PM 39.7381 -76.8075 53° Northeast 117 135 9,600 49 Climbing New York Center
Fri 05:22:22 PM 39.7589 -76.7661 57° Northeast 117 135 9,600  Level New York Center
Fri 05:23:22 PM 39.7753 -76.7297 60° Northeast 122 140 9,600  Level New York Center
Fri 05:24:22 PM 39.7961 -76.6883 57° Northeast 122 140 9,600 -51 Level New York Center
Fri 05:25:20 PM 39.8167 -76.6522 53° Northeast 122 140 9,500 -50 Descending New York Center
Fri 05:26:21 PM 39.8394 -76.6136 52° Northeast 122 140 9,500  Level New York Center
Fri 05:27:21 PM 39.8578 -76.5800 55° Northeast 122 140 9,500  Level New York Center
Fri 05:28:22 PM 39.8808 -76.5383 54° Northeast 122 140 9,500  Level New York Center
Fri 05:29:23 PM 39.8992 -76.5047 55° Northeast 122 140 9,500  Level New York Center
Fri 05:30:23 PM 39.9219 -76.4633 54° Northeast 122 140 9,500 51 Level New York Center
Fri 05:31:21 PM 39.9403 -76.4297 55° Northeast 122 140 9,600  Climbing New York Center
Fri 05:32:22 PM 39.9631 -76.3908 53° Northeast 122 140 9,500 -50 Descending New York Center
Fri 05:33:22 PM 39.9814 -76.3544 57° Northeast 122 140 9,500  Level New York Center
Fri 05:34:23 PM 40.0061 -76.3131 52° Northeast 122 140 9,500  Level New York Center
Fri 05:35:23 PM 40.0244 -76.2792 55° Northeast 122 140 9,500  Level New York Center
Fri 05:36:20 PM 40.0453 -76.2375 57° Northeast 122 140 9,500  Level New York Center
Fri 05:37:21 PM 40.0636 -76.1981 59° Northeast 122 140 9,500  Level New York Center
Fri 05:38:22 PM 40.0842 -76.1592 55° Northeast 122 140 9,500  Level New York Center
Fri 05:39:20 PM 40.1047 -76.1228 54° Northeast 122 140 9,500  Level New York Center
Fri 05:40:21 PM 40.1211 -76.0833 61° Northeast 122 140 9,500 -49 Level New York Center
Fri 05:41:22 PM 40.1397 -76.0411 60° Northeast 122 140 9,400  Descending New York Center
Fri 05:42:22 PM 40.1600 -76.0047 54° Northeast 122 140 9,500 50 Climbing New York Center
Fri 05:43:22 PM 40.1783 -75.9681 57° Northeast 122 140 9,500  Level New York Center
Fri 05:44:22 PM 40.2028 -75.9319 48° Northeast 122 140 9,500  Level New York Center
Fri 05:45:23 PM 40.2208 -75.8978 55° Northeast 122 140 9,500 50 Level New York Center
Fri 05:46:23 PM 40.2372 -75.8583 61° Northeast 122 140 9,600 51 Climbing New York Center
Fri 05:47:20 PM 40.2578 -75.8189 56° Northeast 122 140 9,600  Level New York Center
Fri 05:48:21 PM 40.2803 -75.7769 55° Northeast 122 140 9,600  Level New York Center
Fri 05:49:22 PM 40.2986 -75.7403 57° Northeast 122 140 9,600  Level New York Center
Fri 05:50:20 PM 40.3186 -75.7064 52° Northeast 122 140 9,600  Level New York Center
Fri 05:51:22 PM 40.3369 -75.6694 57° Northeast 122 140 9,600  Level New York Center
Fri 05:52:23 PM 40.3594 -75.6303 53° Northeast 122 140 9,600  Level New York Center
Fri 05:53:20 PM 40.3797 -75.5908 56° Northeast 122 140 9,600  Level New York Center
Fri 05:54:22 PM 40.4000 -75.5539 54° Northeast 122 140 9,600 -49 Level New York Center
Fri 05:55:23 PM 40.4181 -75.5197 55° Northeast 122 140 9,500 -50 Descending New York Center
Fri 05:56:23 PM 40.4425 -75.4806 51° Northeast 122 140 9,500  Level New York Center
Fri 05:57:20 PM 40.4608 -75.4436 57° Northeast 122 140 9,500  Level New York Center
Fri 05:58:22 PM 40.4789 -75.4067 57° Northeast 122 140 9,500  Level New York Center
Fri 05:59:22 PM 40.4992 -75.3672 56° Northeast 122 140 9,500  Level New York Center
Fri 06:00:23 PM 40.5194 -75.3303 54° Northeast 122 140 9,500  Level New York Center
Fri 06:01:22 PM 40.5356 -75.2903 62° Northeast 122 140 9,500  Level New York Center
Fri 06:02:21 PM 40.5556 -75.2533 55° Northeast 122 140 9,500 50 Level New York Center
Fri 06:03:22 PM 40.5739 -75.2136 59° Northeast 122 140 9,600  Climbing New York Center
Fri 06:04:22 PM 40.5917 -75.1819 54° Northeast 122 140 9,500 -50 Descending New York Center
Fri 06:05:23 PM 40.6119 -75.1394 58° Northeast 122 140 9,500 50 Level New York Center
Fri 06:06:21 PM 40.6303 -75.0969 60° Northeast 122 140 9,600 51 Climbing New York Center
Fri 06:07:21 PM 40.6483 -75.0597 57° Northeast 122 140 9,600  Level New York Center
Fri 06:08:22 PM 40.6642 -75.0253 59° Northeast 122 140 9,600  Level New York Center
Fri 06:09:22 PM 40.6842 -74.9856 56° Northeast 122 140 9,600  Level New York Center
Fri 06:10:23 PM 40.7044 -74.9456 56° Northeast 122 140 9,600  Level New York Center
Fri 06:11:23 PM 40.7244 -74.9086 54° Northeast 122 140 9,600 -50 Level New York Center
Fri 06:12:22 PM 40.7469 -74.8661 55° Northeast 122 140 9,500  Descending New York Center
Fri 06:13:22 PM 40.7647 -74.8342 54° Northeast 122 140 9,600 50 Climbing New York Center
Fri 06:14:23 PM 40.7869 -74.7944 54° Northeast 122 140 9,600  Level New York Center
Fri 06:15:21 PM 40.8047 -74.7600 56° Northeast 122 140 9,600  Level New York Center
Fri 06:16:21 PM 40.8269 -74.7172 56° Northeast 122 140 9,600 -50 Level New York Center
Fri 06:17:22 PM 40.8447 -74.6853 54° Northeast 122 140 9,500 -50 Descending New York Center
Fri 06:18:22 PM 40.8650 -74.6400 59° Northeast 122 140 9,500 71 Level New York Center
Fri 06:18:46 PM 40.8667 -74.6167 85° East 126 145 9,600  Climbing New York TRACON
Fri 06:19:23 PM 40.8825 -74.6081 22° Northeast 122 140 9,500 -63 Descending New York Center
Fri 06:20:21 PM 40.9028 -74.5653 58° Northeast 122 140 9,500  Level New York Center
Fri 06:22:46 PM 40.9500 -74.4667 58° Northeast 125 144 9,500 29 Level New York TRACON
Fri 06:23:46 PM 40.9667 -74.4333 56° Northeast 125 144 9,600 50 Climbing New York TRACON
Fri 06:24:46 PM 40.9833 -74.4000 56° Northeast 124 143 9,600 -50 Level New York TRACON
Fri 06:25:46 PM 41.0000 -74.3500 66° East 124 143 9,500 -50 Descending New York TRACON
Fri 06:26:46 PM 41.0333 -74.3167 37° Northeast 125 144 9,500  Level New York TRACON
Fri 06:27:40 PM 41.0500 -74.2833 56° Northeast 124 143 9,500 50 Level New York TRACON
Fri 06:28:46 PM 41.0667 -74.2333 66° East 125 144 9,600 48 Climbing New York TRACON
Fri 06:29:46 PM 41.0833 -74.2000 56° Northeast 127 146 9,600 -50 Level New York TRACON
Fri 06:30:46 PM 41.1000 -74.1667 56° Northeast 132 152 9,500  Descending New York TRACON
Fri 06:31:46 PM 41.1333 -74.1167 48° Northeast 129 148 9,600 53 Climbing New York TRACON
Fri 06:32:40 PM 41.1500 -74.0833 56° Northeast 130 150 9,600  Level New York TRACON
Fri 06:33:40 PM 41.1667 -74.0500 56° Northeast 130 150 9,600  Level New York TRACON
Fri 06:34:46 PM 41.1833 -74.0000 66° East 127 146 9,600 -48 Level New York TRACON
Fri 06:35:46 PM 41.2000 -73.9667 56° Northeast 127 146 9,500  Descending New York TRACON
Fri 06:36:40 PM 41.2167 -73.9333 56° Northeast 127 146 9,600  Climbing New York TRACON
Fri 06:37:40 PM 41.2333 -73.8833 66° East 127 146 9,500 -100 Descending New York TRACON
Fri 06:38:40 PM 41.2500 -73.8500 56° Northeast 125 144 9,400 33 Descending New York TRACON
Fri 06:40:44 PM 41.2922 -73.7744 53° Northeast 124 143 9,600 65 Climbing Boston Center
Fri 06:41:44 PM 41.3114 -73.7417 52° Northeast 124 143 9,600 50 Level Boston Center
Fri 06:42:44 PM 41.3306 -73.7006 58° Northeast 124 143 9,700 -50 Climbing Boston Center
Fri 06:43:44 PM 41.3475 -73.6650 58° Northeast 119 137 9,500 -100 Descending Boston Center
Fri 06:44:44 PM 41.3667 -73.6267 56° Northeast 119 137 9,500  Level Boston Center
Fri 06:45:44 PM 41.3836 -73.5939 55° Northeast 124 143 9,500 50 Level Boston Center
Fri 06:46:44 PM 41.4028 -73.5525 58° Northeast 124 143 9,600 100 Climbing Boston Center
Fri 06:47:44 PM 41.4200 -73.5169 57° Northeast 124 143 9,700 50 Climbing Boston Center
Fri 06:48:44 PM 41.4411 -73.4758 56° Northeast 124 143 9,700 -50 Level Boston Center
Fri 06:49:44 PM 41.4603 -73.4428 52° Northeast 124 143 9,600 -100 Descending Boston Center
Fri 06:50:44 PM 41.4814 -73.4017 56° Northeast 124 143 9,500 -76 Descending Boston Center
Fri 06:51:03 PM 41.4856 -73.3878 68° East 125 144 9,500 100 Level Boston Center
Fri 06:51:44 PM 41.4983 -73.3686 48° Northeast 124 143 9,600 59 Climbing Boston Center
Fri 06:52:44 PM 41.5217 -73.3300 51° Northeast 124 143 9,600 -50 Level Boston Center
Fri 06:53:44 PM 41.5428 -73.2917 54° Northeast 118 136 9,500 -50 Descending Boston Center
Fri 06:54:44 PM 41.5597 -73.2556 58° Northeast 123 142 9,500  Level Boston Center
Fri 06:55:44 PM 41.5808 -73.2144 56° Northeast 123 142 9,500  Level Boston Center
Fri 06:56:44 PM 41.5956 -73.1839 57° Northeast 123 142 9,500  Level Boston Center
Fri 06:57:44 PM 41.6189 -73.1397 55° Northeast 123 142 9,500 45 Level Boston Center
Fri 06:58:56 PM 41.6419 -73.0956 55° Northeast 122 140 9,600  Climbing Boston Center
Fri 06:59:44 PM 41.6567 -73.0653 57° Northeast 118 136 9,500 -56 Descending Boston Center
Fri 07:00:44 PM 41.6736 -73.0292 58° Northeast 123 142 9,500  Level Boston Center
Fri 07:01:44 PM 41.6947 -72.9878 56° Northeast 123 142 9,500  Level Boston Center
Fri 07:02:44 PM 41.7094 -72.9544 59° Northeast 123 142 9,500  Level Boston Center
Fri 07:02:59 PM 41.7136 -72.9406 68° East 122 140 9,500  Level Boston Center
Fri 07:03:44 PM 41.7306 -72.9131 50° Northeast 123 142 9,500  Level Boston Center
Fri 07:03:59 PM 41.7325 -72.9047 73° East 122 140 9,500  Level Boston Center
Fri 07:04:44 PM 41.7472 -72.8769 55° Northeast 123 142 9,500  Level Boston Center
Fri 07:05:00 PM 41.7494 -72.8631 78° East 120 138 9,500  Level Boston Center
Fri 07:05:44 PM 41.7642 -72.8353 55° Northeast 123 142 9,500  Level Boston Center
Fri 07:06:07 PM 41.7683 -72.8214 68° East 119 137 9,500  Level Boston Center
Fri 07:07:08 PM 41.7872 -72.7825 57° Northeast 120 138 9,500  Level Boston Center
Fri 07:08:08 PM 41.8039 -72.7436 60° Northeast 120 138 9,500 -248 Level Boston Center
Fri 07:09:09 PM 41.8228 -72.7047 57° Northeast 129 148 9,000 -492 Descending Boston Center
Fri 07:10:10 PM 41.8417 -72.6603 60° Northeast 131 151 8,500 -595 Descending Boston Center
Fri 07:11:10 PM 41.8625 -72.6183 56° Northeast 138 159 7,800 -661 Descending Boston Center
Fri 07:12:17 PM 41.8856 -72.5711 57° Northeast 142 163 7,100 -609 Descending Boston Center
Fri 07:13:18 PM 41.9086 -72.5267 55° Northeast 142 163 6,500 -595 Descending Boston Center
Fri 07:14:18 PM 41.9314 -72.4819 56° Northeast 143 165 5,900 -545 Descending Boston Center
Fri 07:15:19 PM 41.9544 -72.4372 55° Northeast 139 160 5,400 -295 Descending Boston Center
Fri 07:16:20 PM 41.9753 -72.3983 54° Northeast 131 151 5,300 -50 Descending Boston Center
Fri 07:17:20 PM 41.9981 -72.3592 52° Northeast 127 146 5,300  Level Boston Center
Fri 07:18:21 PM 42.0147 -72.3228 58° Northeast 124 143 5,300 49 Level Boston Center
Fri 07:19:22 PM 42.0356 -72.2836 54° Northeast 120 138 5,400 104 Climbing Boston Center
Fri 07:20:16 PM 42.0522 -72.2472 58° Northeast 121 139 5,500 99 Climbing Boston Center
Fri 07:21:23 PM 42.0689 -72.2025 63° Northeast 122 140 5,600  Climbing Boston Center
Fri 07:22:24 PM 42.0875 -72.1658 56° Northeast 122 140 5,500 -207 Descending Boston Center
Fri 07:23:19 PM 42.1039 -72.1267 61° Northeast 127 146 5,200 -417 Descending Boston Center
Fri 07:24:19 PM 42.1206 -72.0847 62° Northeast 129 148 4,700 -397 Descending Boston Center
Fri 07:25:20 PM 42.1372 -72.0425 62° Northeast 128 147 4,400 -344 Descending Boston Center
Fri 07:26:21 PM 42.1558 -72.0033 57° Northeast 127 146 4,000 -397 Descending Boston Center
Fri 07:27:21 PM 42.1742 -71.9583 61° Northeast 128 147 3,600 -298 Descending Boston Center
Fri 07:28:22 PM 42.1908 -71.9189 60° Northeast 124 143 3,400 -99 Descending Boston Center
Fri 07:29:22 PM 42.2072 -71.8822 59° Northeast 113 130 3,400 50 Level Boston Center
Fri 07:30:23 PM 42.2239 -71.8403 62° Northeast 117 135 3,500 69 Climbing Boston Center
Fri 07:32:17 PM 42.2667 -71.7667 52° Northeast 117 135 3,600 34 Climbing KA90
Fri 07:33:17 PM 42.2667 -71.7333 90° East 115 132 3,600 -48 Level KA90
Fri 07:34:23 PM 42.3000 -71.6833 48° Northeast 115 132 3,500  Descending KA90
Fri 07:35:17 PM 42.3000 -71.6500 90° East 112 129 3,600 53 Climbing KA90
Fri 07:36:17 PM 42.3167 -71.6167 56° Northeast 118 136 3,600  Level KA90
Fri 07:37:11 PM 42.3500 -71.5833 36° Northeast 113 130 3,600 -48 Level KA90
Fri 07:38:23 PM 42.3667 -71.5500 56° Northeast 132 152 3,500  Descending KA90
Fri 07:39:17 PM 42.4000 -71.5333 20° North 112 129 3,600 -150 Climbing KA90
Fri 07:40:23 PM 42.4167 -71.5000 56° Northeast 119 137 3,200 -526 Descending KA90
Fri 07:41:11 PM 42.4500 -71.4667 36° Northeast 123 142 2,600 -400 Descending KA90
Fri 07:42:23 PM 42.4333 -71.4833 216° Southwest 133 153 2,400 -167 Descending KA90

Login

Don't have an account? Register now (free) for customized features, flight alerts, and more!